Lisburn, United Kingdom
Current Conditions -  °F | °C
As of 4:50 PM on Saturday 25 Oct 2014 (Local Time) from EGAC Reporting Station
Rain Showers Rain Showers  
Wind Chill: 55°   Ceiling: Unl
Heat Index: 55°   Visibility: 6mi
Dew Point: 48°   Wind: 15mph
Humidity: 77%   Direction: 200°SSW
Pressure: 29.77"   Gusts: NA
Location:  54.51°N, 6.04°W
Report Text: EGAC 251550Z 20013KT 9999 -SHRA FEW020 SCT038 13/09 Q1008
Loading
Personal Weather Stations






























Interactive Weather Map
Tropical Storm Tracking
New forecast layout! Learn more

10-Day Weather Forecast

Advertisements
Track Severe Weather on mobile